createdAt,value
2017-11-05T00:00:14.459Z,19.23
2017-11-05T00:06:18.266Z,17.80
2017-11-05T00:12:21.738Z,18.37
2017-11-05T00:18:25.215Z,17.60
2017-11-05T00:24:28.694Z,16.63
2017-11-05T00:30:32.158Z,18.53
2017-11-05T00:36:36.396Z,18.23
2017-11-05T00:42:40.172Z,16.93
2017-11-05T00:48:44.005Z,18.03
2017-11-05T00:54:47.574Z,16.70
2017-11-05T01:00:51.802Z,18.07
2017-11-05T01:06:55.262Z,17.70
2017-11-05T01:12:58.732Z,15.53
2017-11-05T01:19:02.225Z,16.50
2017-11-05T01:25:05.685Z,16.67
2017-11-05T01:31:09.234Z,17.20
2017-11-05T01:37:13.466Z,18.13
2017-11-05T01:43:16.937Z,16.30
2017-11-05T01:49:21.770Z,17.10
2017-11-05T01:55:25.311Z,19.20
2017-11-05T02:01:29.044Z,19.03
2017-11-05T02:07:32.782Z,20.20
2017-11-05T02:13:36.556Z,19.40
2017-11-05T02:19:40.338Z,19.00
2017-11-05T02:25:43.851Z,20.97
2017-11-05T02:31:47.312Z,20.70
2017-11-05T02:37:50.891Z,20.30
2017-11-05T02:43:54.343Z,19.90
2017-11-05T02:49:57.814Z,22.37
2017-11-05T02:56:02.377Z,22.77
2017-11-05T03:02:05.848Z,21.80
2017-11-05T03:08:09.635Z,21.17
2017-11-05T03:14:13.096Z,24.20
2017-11-05T03:20:16.569Z,21.57
2017-11-05T03:26:20.773Z,24.10
2017-11-05T03:32:24.329Z,25.90
2017-11-05T03:38:28.207Z,24.40
2017-11-05T03:44:32.194Z,26.70
2017-11-05T03:50:35.657Z,25.00
2017-11-05T03:56:39.115Z,26.00
2017-11-05T04:02:42.864Z,26.77
2017-11-05T04:08:46.300Z,25.53
2017-11-05T04:14:50.023Z,25.80
2017-11-05T04:20:53.809Z,33.27
2017-11-05T04:26:57.611Z,31.83
2017-11-05T04:33:01.494Z,30.40
2017-11-05T04:39:04.946Z,28.80
2017-11-05T04:45:08.420Z,30.87
2017-11-05T04:51:12.644Z,27.30
2017-11-05T04:57:16.453Z,31.63
2017-11-05T05:03:20.249Z,30.43
2017-11-05T05:09:24.093Z,35.13
2017-11-05T05:15:28.671Z,31.83
2017-11-05T05:21:32.159Z,30.40
2017-11-05T05:27:36.420Z,32.30
2017-11-05T05:33:39.883Z,30.30
2017-11-05T05:39:43.610Z,32.27
2017-11-05T05:45:47.060Z,33.33
2017-11-05T05:51:50.777Z,33.83
2017-11-05T05:57:54.243Z,35.60
2017-11-05T06:03:57.965Z,37.47
2017-11-05T06:10:01.423Z,37.20
2017-11-05T06:16:05.679Z,34.17
2017-11-05T06:22:09.126Z,37.80
2017-11-05T06:28:12.608Z,38.50
2017-11-05T06:34:16.425Z,38.63
2017-11-05T06:40:19.881Z,40.77
2017-11-05T06:46:23.336Z,38.40
2017-11-05T06:52:26.780Z,38.90
2017-11-05T06:58:30.305Z,36.80
2017-11-05T07:04:33.759Z,33.90
2017-11-05T07:10:37.242Z,35.80
2017-11-05T07:16:41.040Z,34.13
2017-11-05T07:22:44.760Z,34.67
2017-11-05T07:28:48.980Z,33.97
2017-11-05T07:34:52.580Z,32.47
2017-11-05T07:40:56.413Z,33.23
2017-11-05T07:46:59.882Z,33.57
2017-11-05T07:53:03.645Z,32.20
2017-11-05T07:59:07.480Z,31.87
2017-11-05T08:05:10.935Z,30.87
2017-11-05T08:11:14.742Z,29.20
2017-11-05T08:17:18.204Z,28.70
2017-11-05T08:23:21.687Z,28.20
2017-11-05T08:29:25.419Z,25.97
2017-11-05T08:35:28.878Z,21.70
2017-11-05T08:41:32.667Z,29.30
2017-11-05T08:47:36.123Z,29.60
2017-11-05T08:53:40.682Z,13.57
2017-11-05T08:59:44.269Z,11.97
2017-11-05T09:05:47.733Z,11.10
2017-11-05T09:11:52.041Z,6.37
2017-11-05T09:17:55.503Z,4.83
2017-11-05T09:23:58.977Z,2.87
2017-11-05T09:30:03.527Z,3.27
2017-11-05T09:36:06.977Z,2.50
2017-11-05T09:42:11.193Z,2.87
2017-11-05T09:48:15.022Z,2.97
2017-11-05T09:54:18.505Z,4.60
2017-11-05T10:00:22.669Z,2.17
2017-11-05T10:06:26.497Z,2.33
2017-11-05T10:12:30.301Z,2.10
2017-11-05T10:18:34.082Z,2.90
2017-11-05T10:24:37.536Z,21.27
2017-11-05T10:30:41.363Z,10.33
2017-11-05T10:36:44.827Z,3.60
2017-11-05T10:42:48.295Z,4.60
2017-11-05T10:48:51.791Z,4.17
2017-11-05T10:54:55.276Z,2.63
2017-11-05T11:00:58.735Z,2.93
2017-11-05T11:07:02.963Z,3.37
2017-11-05T11:13:06.462Z,2.63
2017-11-05T11:19:09.920Z,1.70
2017-11-05T11:25:14.140Z,2.07
2017-11-05T11:31:17.592Z,2.03
2017-11-05T11:37:21.445Z,2.30
2017-11-05T11:43:24.904Z,2.57
2017-11-05T11:49:28.395Z,2.03
2017-11-05T11:55:31.860Z,2.40
2017-11-05T12:01:35.321Z,2.03
2017-11-05T12:07:39.530Z,2.07
2017-11-05T12:13:43.772Z,2.67
2017-11-05T12:19:47.238Z,3.83
2017-11-05T12:25:50.754Z,2.40
2017-11-05T12:31:54.202Z,1.40
2017-11-05T12:37:58.425Z,4.57
2017-11-05T12:44:02.649Z,4.00
2017-11-05T12:50:06.098Z,2.83
2017-11-05T12:56:09.667Z,4.37
2017-11-05T13:02:13.123Z,3.87
2017-11-05T13:08:17.313Z,2.97
2017-11-05T13:14:20.884Z,1.80
2017-11-05T13:20:24.330Z,2.70
2017-11-05T13:26:27.794Z,3.00
2017-11-05T13:32:31.246Z,4.10
2017-11-05T13:38:34.697Z,3.80
2017-11-05T13:44:38.302Z,3.57
2017-11-05T13:50:41.857Z,4.70
2017-11-05T13:56:45.401Z,4.30
2017-11-05T14:02:48.878Z,2.73
2017-11-05T14:08:53.279Z,3.20
2017-11-05T14:14:56.725Z,3.47
2017-11-05T14:21:00.952Z,3.20
2017-11-05T14:27:05.198Z,3.40
2017-11-05T14:33:08.640Z,4.30
2017-11-05T14:39:12.113Z,5.57
2017-11-05T14:45:15.557Z,3.33
2017-11-05T14:51:19.816Z,3.37
2017-11-05T14:57:23.263Z,3.77
2017-11-05T15:03:27.477Z,3.30
2017-11-05T15:09:31.713Z,8.57
2017-11-05T15:15:35.163Z,8.90
2017-11-05T15:21:38.620Z,5.80
2017-11-05T15:27:42.065Z,3.70
2017-11-05T15:33:45.545Z,4.67
2017-11-05T15:39:49.004Z,3.23
2017-11-05T15:45:53.014Z,4.00
2017-11-05T15:51:56.459Z,11.37
2017-11-05T15:57:59.942Z,3.90
2017-11-05T16:04:03.394Z,3.27
2017-11-05T16:10:06.872Z,8.60
2017-11-05T16:16:11.110Z,10.43
2017-11-05T16:22:14.590Z,3.97
2017-11-05T16:28:18.050Z,3.20
2017-11-05T16:34:21.511Z,4.60
2017-11-05T16:40:24.977Z,5.10
2017-11-05T16:46:28.447Z,6.10
2017-11-05T16:52:32.673Z,5.00
2017-11-05T16:58:36.117Z,4.20
2017-11-05T17:04:39.730Z,5.50
2017-11-05T17:10:43.967Z,7.30
2017-11-05T17:16:48.417Z,9.80
2017-11-05T17:22:52.883Z,7.07
2017-11-05T17:28:56.347Z,6.83
2017-11-05T17:34:59.814Z,6.83
2017-11-05T17:41:04.041Z,9.37
2017-11-05T17:47:07.516Z,8.97
2017-11-05T17:53:10.985Z,7.70
2017-11-05T17:59:15.212Z,9.17
2017-11-05T18:05:18.689Z,9.47
2017-11-05T18:11:22.170Z,8.50
2017-11-05T18:17:25.638Z,8.50
2017-11-05T18:23:30.357Z,9.20
2017-11-05T18:29:34.599Z,9.63
2017-11-05T18:35:38.047Z,10.43
2017-11-05T18:41:41.523Z,10.70
2017-11-05T18:47:45.770Z,11.63
2017-11-05T18:53:49.271Z,10.73
2017-11-05T18:59:52.726Z,11.67
2017-11-05T19:05:56.197Z,12.20
2017-11-05T19:11:59.759Z,13.80
2017-11-05T19:18:03.985Z,13.60
2017-11-05T19:24:07.475Z,11.80
2017-11-05T19:30:10.958Z,12.40
2017-11-05T19:36:14.414Z,12.00
2017-11-05T19:42:18.657Z,12.40
2017-11-05T19:48:22.877Z,15.70
2017-11-05T19:54:26.337Z,18.47
2017-11-05T20:00:29.805Z,13.40
2017-11-05T20:06:33.256Z,15.33
2017-11-05T20:12:37.498Z,11.10
2017-11-05T20:18:40.978Z,11.73
2017-11-05T20:24:44.445Z,7.40
2017-11-05T20:30:48.685Z,10.17
2017-11-05T20:36:52.312Z,10.07
2017-11-05T20:42:55.799Z,9.33
2017-11-05T20:49:00.195Z,7.97
2017-11-05T20:55:03.666Z,6.40
2017-11-05T21:01:07.156Z,7.13
2017-11-05T21:07:10.617Z,6.57
2017-11-05T21:13:14.352Z,6.47
2017-11-05T21:19:18.585Z,7.03
2017-11-05T21:25:22.107Z,6.40
2017-11-05T21:31:25.572Z,6.47
2017-11-05T21:37:29.347Z,7.60
2017-11-05T21:43:33.563Z,8.13
2017-11-05T21:49:37.261Z,8.40
2017-11-05T21:55:40.705Z,10.07
2017-11-05T22:01:44.454Z,11.87
2017-11-05T22:07:48.287Z,11.33
2017-11-05T22:13:51.740Z,13.70
2017-11-05T22:19:55.198Z,11.03
2017-11-05T22:25:58.649Z,11.10
2017-11-05T22:32:02.102Z,12.00
2017-11-05T22:38:05.561Z,12.90
2017-11-05T22:44:09.022Z,13.23
2017-11-05T22:50:12.465Z,14.00
2017-11-05T22:56:16.219Z,13.90
2017-11-05T23:02:19.661Z,13.10
2017-11-05T23:08:23.969Z,14.07
2017-11-05T23:14:28.228Z,14.93
2017-11-05T23:20:31.677Z,14.17
2017-11-05T23:26:35.126Z,12.60
2017-11-05T23:32:39.728Z,17.23
2017-11-05T23:38:43.473Z,15.60
2017-11-05T23:44:47.001Z,14.10
2017-11-05T23:50:50.463Z,13.90
2017-11-05T23:56:54.247Z,15.73
